createdAt,value
2019-01-10T09:12:56.804Z,1.77
2019-01-10T09:18:00.516Z,2.10
2019-01-10T09:23:04.159Z,1.70
2019-01-10T09:28:07.811Z,1.53
2019-01-10T09:33:11.670Z,1.70
2019-01-10T09:38:15.378Z,1.47
2019-01-10T09:43:19.107Z,1.60
2019-01-10T09:51:42.291Z,1.60
2019-01-10T10:19:31.267Z,1.80
2019-01-10T10:24:34.911Z,1.60
2019-01-10T10:29:38.639Z,1.93
2019-01-10T10:34:42.276Z,1.70
2019-01-10T10:39:45.994Z,2.10
2019-01-10T10:44:49.692Z,1.97
2019-01-10T10:49:53.410Z,2.27
2019-01-10T10:54:57.044Z,2.17
2019-01-10T11:00:00.793Z,1.90
2019-01-10T11:05:05.007Z,2.40
2019-01-10T11:10:09.985Z,2.17
2019-01-10T11:15:13.695Z,2.13
2019-01-10T11:25:32.230Z,2.43
2019-01-10T11:30:36.083Z,2.00
2019-01-10T11:35:39.791Z,2.90
2019-01-10T11:40:43.650Z,3.60
2019-01-10T11:45:47.689Z,3.23
2019-01-10T11:50:51.503Z,3.10
2019-01-10T11:55:55.136Z,3.20
2019-01-10T12:00:58.782Z,3.20
2019-01-10T12:06:02.432Z,3.37
2019-01-10T12:11:06.099Z,2.97
2019-01-10T12:16:09.863Z,3.63
2019-01-10T12:21:13.500Z,3.00
2019-01-10T12:26:17.155Z,3.20
2019-01-10T12:31:20.795Z,3.03
2019-01-10T12:36:24.484Z,3.17
2019-01-10T12:41:28.143Z,3.13
2019-01-10T12:46:37.396Z,2.77
2019-01-10T12:51:37.242Z,3.10
2019-01-10T12:56:40.963Z,2.57
2019-01-10T13:01:44.605Z,3.43
2019-01-10T13:06:48.252Z,3.60
2019-01-10T13:11:51.902Z,3.47
2019-01-10T13:16:55.562Z,3.60
2019-01-10T13:21:59.311Z,4.53
2019-01-10T13:27:03.155Z,4.00
2019-01-10T13:32:06.803Z,3.63
2019-01-10T13:37:10.468Z,3.70
2019-01-10T13:42:14.139Z,3.30
2019-01-10T13:47:17.779Z,3.30
2019-01-10T13:52:21.526Z,3.97
2019-01-10T13:57:25.208Z,4.07
2019-01-10T14:06:48.915Z,3.13
2019-01-10T14:11:52.629Z,3.13
2019-01-10T14:17:01.489Z,3.03
2019-01-10T14:22:01.839Z,2.87
2019-01-10T14:27:05.535Z,2.90
2019-01-10T14:32:09.183Z,2.50
2019-01-10T14:37:12.834Z,2.47
2019-01-10T14:42:16.583Z,2.47
2019-01-10T14:47:20.290Z,2.80
2019-01-10T14:52:24.158Z,2.63
2019-01-10T14:57:27.924Z,2.73
2019-01-10T15:02:31.654Z,2.70
2019-01-10T15:07:35.355Z,2.67
2019-01-10T15:12:39.020Z,2.53
2019-01-10T15:17:44.159Z,2.50
2019-01-10T15:22:48.084Z,2.67
2019-01-10T15:27:52.845Z,3.47
2019-01-10T15:32:56.649Z,4.07
2019-01-10T15:38:00.392Z,4.60
2019-01-10T15:43:05.202Z,3.40
2019-01-10T15:48:08.932Z,4.20
2019-01-10T15:53:12.645Z,4.33
2019-01-10T15:58:16.444Z,4.90
2019-01-10T16:03:20.213Z,4.07
2019-01-10T16:08:23.954Z,3.50
2019-01-10T16:13:27.698Z,3.40
2019-01-10T16:18:31.537Z,3.07
2019-01-10T16:23:35.276Z,3.33
2019-01-10T16:28:38.991Z,3.77
2019-01-10T16:33:42.729Z,2.70
2019-01-10T16:38:46.395Z,2.67
2019-01-10T16:43:50.176Z,2.60
2019-01-10T16:48:53.917Z,2.27
2019-01-10T16:53:57.603Z,2.70
2019-01-10T16:59:01.388Z,2.77
2019-01-10T17:04:05.088Z,2.67
2019-01-10T17:09:08.923Z,2.70
2019-01-10T17:14:12.600Z,2.80
2019-01-10T17:19:16.400Z,3.00
2019-01-10T17:24:20.144Z,3.40
2019-01-10T17:29:24.973Z,3.80
2019-01-10T17:34:28.696Z,3.83
2019-01-10T17:39:32.525Z,4.83
2019-01-10T17:44:36.259Z,5.60
2019-01-10T17:49:40.023Z,6.13
2019-01-10T17:54:43.763Z,6.37
2019-01-10T17:59:47.563Z,6.33
2019-01-10T18:04:51.351Z,7.80
2019-01-10T18:09:55.061Z,7.60
2019-01-10T18:14:58.799Z,7.60
2019-01-10T18:20:02.542Z,7.67
2019-01-10T18:25:06.607Z,8.07
2019-01-10T18:30:12.796Z,7.73
2019-01-10T18:35:16.823Z,8.23
2019-01-10T18:40:20.491Z,8.13
2019-01-10T18:45:25.622Z,8.90
2019-01-10T18:50:29.648Z,8.17
2019-01-10T18:55:33.361Z,8.60
2019-01-10T19:00:37.133Z,9.10
2019-01-10T19:05:40.964Z,9.20
2019-01-10T19:10:44.789Z,8.53
2019-01-10T19:15:48.547Z,8.50
2019-01-10T19:20:52.552Z,8.87
2019-01-10T19:25:56.323Z,8.47
2019-01-10T19:31:00.098Z,9.97
2019-01-10T19:36:03.881Z,9.83
2019-01-10T19:41:07.656Z,9.13
2019-01-10T19:46:11.434Z,9.90
2019-01-10T19:51:15.227Z,9.67
2019-01-10T19:56:18.959Z,10.57
2019-01-10T20:01:25.950Z,10.47
2019-01-10T20:06:29.708Z,10.33
2019-01-10T20:11:33.482Z,11.57
2019-01-10T20:16:37.226Z,10.80
2019-01-10T20:21:40.903Z,11.90
2019-01-10T20:26:44.577Z,11.90
2019-01-10T20:31:49.635Z,12.60
2019-01-10T20:36:53.430Z,13.10
2019-01-10T20:42:01.849Z,12.67
2019-01-10T20:47:02.680Z,12.20
2019-01-10T20:52:06.552Z,13.43
2019-01-10T20:57:10.328Z,13.10
2019-01-10T21:02:14.124Z,14.77
2019-01-10T21:07:17.944Z,13.23
2019-01-10T21:12:21.644Z,14.93
2019-01-10T21:17:25.404Z,14.27
2019-01-10T21:22:29.152Z,13.93
2019-01-10T21:27:32.839Z,14.23
2019-01-10T21:32:40.831Z,16.07
2019-01-10T21:37:42.139Z,15.83
2019-01-10T21:42:45.887Z,16.93
2019-01-10T21:47:49.571Z,16.90
2019-01-10T21:52:53.843Z,16.60
2019-01-10T21:57:57.555Z,18.13
2019-01-10T22:03:02.032Z,17.17
2019-01-10T22:08:08.685Z,17.53
2019-01-10T22:13:12.393Z,17.67
2019-01-10T22:18:16.159Z,18.40
2019-01-10T22:23:19.970Z,18.37
2019-01-10T22:28:23.701Z,17.20
2019-01-10T22:33:27.375Z,16.83
2019-01-10T22:38:31.206Z,16.97
2019-01-10T22:43:34.960Z,16.60
2019-01-10T22:48:38.629Z,18.77
2019-01-10T22:53:42.413Z,19.30
2019-01-10T22:58:46.067Z,16.70
2019-01-10T23:03:49.827Z,18.63
2019-01-10T23:08:53.682Z,19.47
2019-01-10T23:13:58.064Z,21.93
2019-01-10T23:19:02.091Z,23.57
2019-01-10T23:24:07.125Z,26.03
2019-01-10T23:29:11.074Z,25.07
2019-01-10T23:34:14.735Z,23.70
2019-01-10T23:39:19.351Z,25.33
2019-01-10T23:44:23.008Z,25.63
2019-01-10T23:49:26.763Z,25.13
2019-01-10T23:54:30.411Z,25.97
2019-01-10T23:59:34.074Z,25.00
